sensor_id;sensor_type;location;lat;lon;timestamp;P1;durP1;ratioP1;P2;durP2;ratioP2
68866;SDS011;56451;44.804;20.476;2023-11-19T00:00:57;8.90;;;5.05;;
68866;SDS011;56451;44.804;20.476;2023-11-19T00:03:23;9.53;;;5.50;;
68866;SDS011;56451;44.804;20.476;2023-11-19T00:05:49;7.75;;;5.00;;
68866;SDS011;56451;44.804;20.476;2023-11-19T00:08:16;9.60;;;5.60;;
68866;SDS011;56451;44.804;20.476;2023-11-19T00:10:42;8.30;;;5.10;;
68866;SDS011;56451;44.804;20.476;2023-11-19T00:13:09;9.60;;;5.50;;
68866;SDS011;56451;44.804;20.476;2023-11-19T00:15:35;13.07;;;6.28;;
68866;SDS011;56451;44.804;20.476;2023-11-19T00:18:01;14.02;;;5.68;;
68866;SDS011;56451;44.804;20.476;2023-11-19T00:20:30;12.20;;;6.10;;
68866;SDS011;56451;44.804;20.476;2023-11-19T00:22:56;8.60;;;5.33;;
68866;SDS011;56451;44.804;20.476;2023-11-19T00:25:23;12.25;;;6.10;;
68866;SDS011;56451;44.804;20.476;2023-11-19T00:27:49;10.55;;;5.60;;
68866;SDS011;56451;44.804;20.476;2023-11-19T00:30:16;11.48;;;6.00;;
68866;SDS011;56451;44.804;20.476;2023-11-19T00:32:42;11.60;;;5.57;;
68866;SDS011;56451;44.804;20.476;2023-11-19T00:35:09;11.27;;;5.60;;
68866;SDS011;56451;44.804;20.476;2023-11-19T00:37:42;10.98;;;5.97;;
68866;SDS011;56451;44.804;20.476;2023-11-19T00:40:08;13.85;;;6.72;;
68866;SDS011;56451;44.804;20.476;2023-11-19T00:42:36;12.05;;;6.50;;
68866;SDS011;56451;44.804;20.476;2023-11-19T00:45:04;12.52;;;6.15;;
68866;SDS011;56451;44.804;20.476;2023-11-19T00:47:35;14.87;;;6.00;;
68866;SDS011;56451;44.804;20.476;2023-11-19T00:50:02;11.93;;;6.45;;
68866;SDS011;56451;44.804;20.476;2023-11-19T00:52:28;10.15;;;6.03;;
68866;SDS011;56451;44.804;20.476;2023-11-19T00:54:54;12.73;;;6.45;;
68866;SDS011;56451;44.804;20.476;2023-11-19T00:57:20;11.60;;;5.93;;
68866;SDS011;56451;44.804;20.476;2023-11-19T00:59:46;11.32;;;6.00;;
68866;SDS011;56451;44.804;20.476;2023-11-19T01:02:13;11.43;;;6.07;;
68866;SDS011;56451;44.804;20.476;2023-11-19T01:04:39;11.57;;;5.68;;
68866;SDS011;56451;44.804;20.476;2023-11-19T01:07:05;10.50;;;5.87;;
68866;SDS011;56451;44.804;20.476;2023-11-19T01:09:32;11.48;;;5.53;;
68866;SDS011;56451;44.804;20.476;2023-11-19T01:12:00;10.15;;;5.38;;
68866;SDS011;56451;44.804;20.476;2023-11-19T01:14:28;11.82;;;5.53;;
68866;SDS011;56451;44.804;20.476;2023-11-19T01:16:54;11.40;;;4.70;;
68866;SDS011;56451;44.804;20.476;2023-11-19T01:19:23;9.07;;;5.27;;
68866;SDS011;56451;44.804;20.476;2023-11-19T01:21:50;9.70;;;5.05;;
68866;SDS011;56451;44.804;20.476;2023-11-19T01:24:16;12.32;;;5.72;;
68866;SDS011;56451;44.804;20.476;2023-11-19T01:26:46;8.95;;;5.28;;
68866;SDS011;56451;44.804;20.476;2023-11-19T01:29:15;8.50;;;4.80;;
68866;SDS011;56451;44.804;20.476;2023-11-19T01:31:42;11.70;;;5.20;;
68866;SDS011;56451;44.804;20.476;2023-11-19T01:34:09;8.93;;;5.18;;
68866;SDS011;56451;44.804;20.476;2023-11-19T01:36:36;9.02;;;5.20;;
68866;SDS011;56451;44.804;20.476;2023-11-19T01:39:03;9.13;;;4.78;;
68866;SDS011;56451;44.804;20.476;2023-11-19T01:41:35;9.80;;;5.00;;
68866;SDS011;56451;44.804;20.476;2023-11-19T01:44:01;8.60;;;4.73;;
68866;SDS011;56451;44.804;20.476;2023-11-19T01:46:28;9.30;;;4.90;;
68866;SDS011;56451;44.804;20.476;2023-11-19T01:48:55;8.35;;;4.70;;
68866;SDS011;56451;44.804;20.476;2023-11-19T01:51:22;10.60;;;4.95;;
68866;SDS011;56451;44.804;20.476;2023-11-19T01:53:49;7.82;;;4.95;;
68866;SDS011;56451;44.804;20.476;2023-11-19T01:56:15;9.03;;;5.13;;
68866;SDS011;56451;44.804;20.476;2023-11-19T01:58:41;10.00;;;4.70;;
68866;SDS011;56451;44.804;20.476;2023-11-19T02:01:10;8.82;;;5.20;;
68866;SDS011;56451;44.804;20.476;2023-11-19T02:03:38;7.82;;;5.15;;
68866;SDS011;56451;44.804;20.476;2023-11-19T02:06:04;11.82;;;5.15;;
68866;SDS011;56451;44.804;20.476;2023-11-19T02:08:30;8.63;;;4.30;;
68866;SDS011;56451;44.804;20.476;2023-11-19T02:10:56;8.43;;;4.97;;
68866;SDS011;56451;44.804;20.476;2023-11-19T02:13:25;9.90;;;5.32;;
68866;SDS011;56451;44.804;20.476;2023-11-19T02:15:52;11.30;;;4.45;;
68866;SDS011;56451;44.804;20.476;2023-11-19T02:20:59;8.07;;;4.73;;
68866;SDS011;56451;44.804;20.476;2023-11-19T02:23:28;8.75;;;5.00;;
68866;SDS011;56451;44.804;20.476;2023-11-19T02:26:14;8.90;;;4.95;;
68866;SDS011;56451;44.804;20.476;2023-11-19T02:28:45;8.50;;;4.75;;
68866;SDS011;56451;44.804;20.476;2023-11-19T02:31:12;8.48;;;4.70;;
68866;SDS011;56451;44.804;20.476;2023-11-19T02:33:38;8.17;;;4.50;;
68866;SDS011;56451;44.804;20.476;2023-11-19T02:36:04;11.43;;;4.75;;
68866;SDS011;56451;44.804;20.476;2023-11-19T02:38:32;8.48;;;4.93;;
68866;SDS011;56451;44.804;20.476;2023-11-19T02:40:59;9.90;;;4.45;;
68866;SDS011;56451;44.804;20.476;2023-11-19T02:43:27;9.43;;;4.67;;
68866;SDS011;56451;44.804;20.476;2023-11-19T02:45:54;8.43;;;4.20;;
68866;SDS011;56451;44.804;20.476;2023-11-19T02:48:21;10.43;;;4.57;;
68866;SDS011;56451;44.804;20.476;2023-11-19T02:50:47;7.60;;;4.50;;
68866;SDS011;56451;44.804;20.476;2023-11-19T02:53:13;9.20;;;4.40;;
68866;SDS011;56451;44.804;20.476;2023-11-19T02:55:39;8.40;;;4.97;;
68866;SDS011;56451;44.804;20.476;2023-11-19T02:58:06;9.32;;;4.53;;
68866;SDS011;56451;44.804;20.476;2023-11-19T03:00:45;8.68;;;4.32;;
68866;SDS011;56451;44.804;20.476;2023-11-19T03:03:19;7.75;;;4.43;;
68866;SDS011;56451;44.804;20.476;2023-11-19T03:05:48;10.90;;;5.15;;
68866;SDS011;56451;44.804;20.476;2023-11-19T03:08:15;8.73;;;5.33;;
68866;SDS011;56451;44.804;20.476;2023-11-19T03:10:42;10.32;;;5.22;;
68866;SDS011;56451;44.804;20.476;2023-11-19T03:13:11;9.68;;;4.45;;
68866;SDS011;56451;44.804;20.476;2023-11-19T03:15:39;9.77;;;4.97;;
68866;SDS011;56451;44.804;20.476;2023-11-19T03:18:06;8.52;;;4.57;;
68866;SDS011;56451;44.804;20.476;2023-11-19T03:20:32;7.97;;;4.90;;
68866;SDS011;56451;44.804;20.476;2023-11-19T03:22:59;13.52;;;4.57;;
68866;SDS011;56451;44.804;20.476;2023-11-19T03:25:27;9.38;;;4.50;;
68866;SDS011;56451;44.804;20.476;2023-11-19T03:27:58;12.00;;;4.70;;
68866;SDS011;56451;44.804;20.476;2023-11-19T03:33:29;9.20;;;4.27;;
68866;SDS011;56451;44.804;20.476;2023-11-19T03:36:05;6.72;;;3.90;;
68866;SDS011;56451;44.804;20.476;2023-11-19T03:38:35;6.95;;;4.10;;
68866;SDS011;56451;44.804;20.476;2023-11-19T03:41:10;9.52;;;5.18;;
68866;SDS011;56451;44.804;20.476;2023-11-19T03:43:38;13.27;;;4.88;;
68866;SDS011;56451;44.804;20.476;2023-11-19T03:46:05;7.93;;;4.70;;
68866;SDS011;56451;44.804;20.476;2023-11-19T03:48:48;9.25;;;4.95;;
68866;SDS011;56451;44.804;20.476;2023-11-19T03:51:15;9.57;;;5.10;;
68866;SDS011;56451;44.804;20.476;2023-11-19T03:53:44;9.27;;;4.43;;
68866;SDS011;56451;44.804;20.476;2023-11-19T03:56:11;7.55;;;4.47;;
68866;SDS011;56451;44.804;20.476;2023-11-19T03:58:37;10.13;;;5.07;;
68866;SDS011;56451;44.804;20.476;2023-11-19T04:01:04;8.25;;;5.18;;
68866;SDS011;56451;44.804;20.476;2023-11-19T04:03:31;8.52;;;4.78;;
68866;SDS011;56451;44.804;20.476;2023-11-19T04:05:58;10.82;;;5.35;;
68866;SDS011;56451;44.804;20.476;2023-11-19T04:08:24;8.73;;;4.80;;
68866;SDS011;56451;44.804;20.476;2023-11-19T04:10:50;11.30;;;5.00;;
68866;SDS011;56451;44.804;20.476;2023-11-19T04:13:16;10.48;;;5.82;;
68866;SDS011;56451;44.804;20.476;2023-11-19T04:15:42;10.13;;;5.20;;
68866;SDS011;56451;44.804;20.476;2023-11-19T04:18:08;8.20;;;4.97;;
68866;SDS011;56451;44.804;20.476;2023-11-19T04:20:35;9.17;;;4.60;;
68866;SDS011;56451;44.804;20.476;2023-11-19T04:23:02;8.00;;;4.68;;
68866;SDS011;56451;44.804;20.476;2023-11-19T04:25:27;9.18;;;4.85;;
68866;SDS011;56451;44.804;20.476;2023-11-19T04:27:54;8.48;;;4.85;;
68866;SDS011;56451;44.804;20.476;2023-11-19T04:30:20;10.67;;;4.77;;
68866;SDS011;56451;44.804;20.476;2023-11-19T04:32:46;9.38;;;4.97;;
68866;SDS011;56451;44.804;20.476;2023-11-19T04:35:11;9.60;;;5.30;;
68866;SDS011;56451;44.804;20.476;2023-11-19T04:37:37;8.80;;;4.57;;
68866;SDS011;56451;44.804;20.476;2023-11-19T04:40:04;8.95;;;5.18;;
68866;SDS011;56451;44.804;20.476;2023-11-19T04:42:31;9.77;;;5.38;;
68866;SDS011;56451;44.804;20.476;2023-11-19T04:44:58;9.35;;;5.50;;
68866;SDS011;56451;44.804;20.476;2023-11-19T04:47:23;10.88;;;5.07;;
68866;SDS011;56451;44.804;20.476;2023-11-19T04:49:49;10.80;;;4.93;;
68866;SDS011;56451;44.804;20.476;2023-11-19T04:52:15;10.07;;;5.25;;
68866;SDS011;56451;44.804;20.476;2023-11-19T04:54:42;11.77;;;5.32;;
68866;SDS011;56451;44.804;20.476;2023-11-19T04:57:11;10.87;;;5.23;;
68866;SDS011;56451;44.804;20.476;2023-11-19T04:59:37;8.00;;;4.78;;
68866;SDS011;56451;44.804;20.476;2023-11-19T05:02:03;7.95;;;4.90;;
68866;SDS011;56451;44.804;20.476;2023-11-19T05:04:29;8.18;;;5.35;;
68866;SDS011;56451;44.804;20.476;2023-11-19T05:06:56;8.23;;;5.03;;
68866;SDS011;56451;44.804;20.476;2023-11-19T05:09:21;9.50;;;5.18;;
68866;SDS011;56451;44.804;20.476;2023-11-19T05:11:47;10.45;;;5.22;;
68866;SDS011;56451;44.804;20.476;2023-11-19T05:14:14;9.60;;;5.22;;
68866;SDS011;56451;44.804;20.476;2023-11-19T05:16:40;11.55;;;5.53;;
68866;SDS011;56451;44.804;20.476;2023-11-19T05:19:06;8.77;;;5.00;;
68866;SDS011;56451;44.804;20.476;2023-11-19T05:21:32;9.20;;;5.07;;
68866;SDS011;56451;44.804;20.476;2023-11-19T05:24:00;8.40;;;5.00;;
68866;SDS011;56451;44.804;20.476;2023-11-19T05:26:26;9.27;;;5.47;;
68866;SDS011;56451;44.804;20.476;2023-11-19T05:28:51;10.30;;;5.27;;
68866;SDS011;56451;44.804;20.476;2023-11-19T05:31:18;8.82;;;5.20;;
68866;SDS011;56451;44.804;20.476;2023-11-19T05:33:44;9.70;;;5.63;;
68866;SDS011;56451;44.804;20.476;2023-11-19T05:36:10;10.43;;;5.78;;
68866;SDS011;56451;44.804;20.476;2023-11-19T05:38:38;9.77;;;5.38;;
68866;SDS011;56451;44.804;20.476;2023-11-19T05:41:04;8.93;;;5.30;;
68866;SDS011;56451;44.804;20.476;2023-11-19T05:43:31;10.57;;;5.32;;
68866;SDS011;56451;44.804;20.476;2023-11-19T05:45:57;10.18;;;5.47;;
68866;SDS011;56451;44.804;20.476;2023-11-19T05:48:25;9.32;;;5.20;;
68866;SDS011;56451;44.804;20.476;2023-11-19T05:50:51;11.57;;;5.10;;
68866;SDS011;56451;44.804;20.476;2023-11-19T05:53:17;9.80;;;5.45;;
68866;SDS011;56451;44.804;20.476;2023-11-19T05:55:43;10.65;;;5.63;;
68866;SDS011;56451;44.804;20.476;2023-11-19T05:58:22;9.38;;;5.40;;
68866;SDS011;56451;44.804;20.476;2023-11-19T06:00:52;9.03;;;5.40;;
68866;SDS011;56451;44.804;20.476;2023-11-19T06:03:18;10.15;;;5.35;;
68866;SDS011;56451;44.804;20.476;2023-11-19T06:05:44;13.63;;;6.05;;
68866;SDS011;56451;44.804;20.476;2023-11-19T06:08:12;11.13;;;5.35;;
68866;SDS011;56451;44.804;20.476;2023-11-19T06:10:41;8.30;;;5.63;;
68866;SDS011;56451;44.804;20.476;2023-11-19T06:13:07;9.60;;;6.05;;
68866;SDS011;56451;44.804;20.476;2023-11-19T06:15:35;8.68;;;5.40;;
68866;SDS011;56451;44.804;20.476;2023-11-19T06:18:02;14.23;;;6.45;;
68866;SDS011;56451;44.804;20.476;2023-11-19T06:20:29;12.48;;;7.18;;
68866;SDS011;56451;44.804;20.476;2023-11-19T06:22:56;10.83;;;6.80;;
68866;SDS011;56451;44.804;20.476;2023-11-19T06:25:22;12.82;;;6.28;;
68866;SDS011;56451;44.804;20.476;2023-11-19T06:27:49;12.63;;;5.63;;
68866;SDS011;56451;44.804;20.476;2023-11-19T06:30:16;10.77;;;6.20;;
68866;SDS011;56451;44.804;20.476;2023-11-19T06:32:42;9.27;;;5.50;;
68866;SDS011;56451;44.804;20.476;2023-11-19T06:35:08;8.80;;;5.03;;
68866;SDS011;56451;44.804;20.476;2023-11-19T06:37:39;8.85;;;5.32;;
68866;SDS011;56451;44.804;20.476;2023-11-19T06:40:06;10.05;;;5.57;;
68866;SDS011;56451;44.804;20.476;2023-11-19T06:42:34;7.65;;;4.95;;
68866;SDS011;56451;44.804;20.476;2023-11-19T06:45:01;7.40;;;5.15;;
68866;SDS011;56451;44.804;20.476;2023-11-19T06:47:29;8.73;;;5.70;;
68866;SDS011;56451;44.804;20.476;2023-11-19T06:49:55;11.35;;;6.05;;
68866;SDS011;56451;44.804;20.476;2023-11-19T06:52:21;12.77;;;6.32;;
68866;SDS011;56451;44.804;20.476;2023-11-19T06:54:47;11.35;;;6.93;;
68866;SDS011;56451;44.804;20.476;2023-11-19T06:57:13;11.57;;;5.43;;
68866;SDS011;56451;44.804;20.476;2023-11-19T06:59:39;9.68;;;5.15;;
68866;SDS011;56451;44.804;20.476;2023-11-19T07:02:06;12.77;;;5.45;;
68866;SDS011;56451;44.804;20.476;2023-11-19T07:04:32;11.07;;;4.90;;
68866;SDS011;56451;44.804;20.476;2023-11-19T07:07:01;10.57;;;5.53;;
68866;SDS011;56451;44.804;20.476;2023-11-19T07:09:27;8.88;;;5.75;;
68866;SDS011;56451;44.804;20.476;2023-11-19T07:11:53;12.07;;;5.32;;
68866;SDS011;56451;44.804;20.476;2023-11-19T07:14:19;11.40;;;5.70;;
68866;SDS011;56451;44.804;20.476;2023-11-19T07:16:45;11.13;;;5.20;;
68866;SDS011;56451;44.804;20.476;2023-11-19T07:19:11;10.35;;;5.40;;
68866;SDS011;56451;44.804;20.476;2023-11-19T07:21:40;9.30;;;5.15;;
68866;SDS011;56451;44.804;20.476;2023-11-19T07:24:10;11.98;;;6.05;;
68866;SDS011;56451;44.804;20.476;2023-11-19T07:26:42;11.07;;;5.90;;
68866;SDS011;56451;44.804;20.476;2023-11-19T07:29:09;10.07;;;5.60;;
68866;SDS011;56451;44.804;20.476;2023-11-19T07:31:35;8.43;;;5.47;;
68866;SDS011;56451;44.804;20.476;2023-11-19T07:34:02;12.40;;;6.13;;
68866;SDS011;56451;44.804;20.476;2023-11-19T07:36:29;9.17;;;5.90;;
68866;SDS011;56451;44.804;20.476;2023-11-19T07:38:54;10.25;;;5.35;;
68866;SDS011;56451;44.804;20.476;2023-11-19T07:41:23;10.98;;;6.10;;
68866;SDS011;56451;44.804;20.476;2023-11-19T07:43:50;10.00;;;5.22;;
68866;SDS011;56451;44.804;20.476;2023-11-19T07:46:17;11.73;;;5.97;;
68866;SDS011;56451;44.804;20.476;2023-11-19T07:48:45;11.37;;;6.07;;
68866;SDS011;56451;44.804;20.476;2023-11-19T07:51:14;13.13;;;6.20;;
68866;SDS011;56451;44.804;20.476;2023-11-19T07:53:40;10.48;;;5.70;;
68866;SDS011;56451;44.804;20.476;2023-11-19T07:56:07;11.52;;;5.75;;
68866;SDS011;56451;44.804;20.476;2023-11-19T07:58:33;11.70;;;6.53;;
68866;SDS011;56451;44.804;20.476;2023-11-19T08:01:00;12.07;;;5.67;;
68866;SDS011;56451;44.804;20.476;2023-11-19T08:03:27;9.00;;;5.70;;
68866;SDS011;56451;44.804;20.476;2023-11-19T08:05:55;10.63;;;6.05;;
68866;SDS011;56451;44.804;20.476;2023-11-19T08:08:22;11.90;;;6.30;;
68866;SDS011;56451;44.804;20.476;2023-11-19T08:10:48;9.63;;;5.90;;
68866;SDS011;56451;44.804;20.476;2023-11-19T08:13:14;10.45;;;5.60;;
68866;SDS011;56451;44.804;20.476;2023-11-19T08:15:40;9.07;;;5.60;;
68866;SDS011;56451;44.804;20.476;2023-11-19T08:18:06;10.68;;;5.78;;
68866;SDS011;56451;44.804;20.476;2023-11-19T08:20:33;10.27;;;6.27;;
68866;SDS011;56451;44.804;20.476;2023-11-19T08:22:59;9.90;;;6.00;;
68866;SDS011;56451;44.804;20.476;2023-11-19T08:25:27;12.25;;;6.60;;
68866;SDS011;56451;44.804;20.476;2023-11-19T08:27:53;9.77;;;5.80;;
68866;SDS011;56451;44.804;20.476;2023-11-19T08:30:19;12.07;;;6.00;;
68866;SDS011;56451;44.804;20.476;2023-11-19T08:32:45;9.75;;;5.82;;
68866;SDS011;56451;44.804;20.476;2023-11-19T08:35:15;14.57;;;6.35;;
68866;SDS011;56451;44.804;20.476;2023-11-19T08:37:41;11.50;;;6.38;;
68866;SDS011;56451;44.804;20.476;2023-11-19T08:40:09;13.75;;;6.53;;
68866;SDS011;56451;44.804;20.476;2023-11-19T08:42:35;11.77;;;6.00;;
68866;SDS011;56451;44.804;20.476;2023-11-19T08:45:01;9.05;;;5.40;;
68866;SDS011;56451;44.804;20.476;2023-11-19T08:47:27;10.85;;;6.05;;
68866;SDS011;56451;44.804;20.476;2023-11-19T08:49:54;10.82;;;6.30;;
68866;SDS011;56451;44.804;20.476;2023-11-19T08:52:20;10.45;;;6.32;;
68866;SDS011;56451;44.804;20.476;2023-11-19T08:54:46;8.80;;;5.30;;
68866;SDS011;56451;44.804;20.476;2023-11-19T08:57:12;12.20;;;6.30;;
68866;SDS011;56451;44.804;20.476;2023-11-19T08:59:38;10.10;;;5.93;;
68866;SDS011;56451;44.804;20.476;2023-11-19T09:02:05;9.88;;;6.10;;
68866;SDS011;56451;44.804;20.476;2023-11-19T09:04:31;10.48;;;5.72;;
68866;SDS011;56451;44.804;20.476;2023-11-19T09:07:00;12.05;;;5.85;;
68866;SDS011;56451;44.804;20.476;2023-11-19T09:09:25;9.95;;;5.93;;
68866;SDS011;56451;44.804;20.476;2023-11-19T09:11:51;11.83;;;5.77;;
68866;SDS011;56451;44.804;20.476;2023-11-19T09:14:17;10.95;;;5.47;;
68866;SDS011;56451;44.804;20.476;2023-11-19T09:16:51;10.95;;;5.75;;
68866;SDS011;56451;44.804;20.476;2023-11-19T09:19:18;10.20;;;6.78;;
68866;SDS011;56451;44.804;20.476;2023-11-19T09:21:44;12.37;;;6.37;;
68866;SDS011;56451;44.804;20.476;2023-11-19T09:24:10;11.40;;;5.10;;
68866;SDS011;56451;44.804;20.476;2023-11-19T09:26:36;8.07;;;4.63;;
68866;SDS011;56451;44.804;20.476;2023-11-19T09:29:04;9.07;;;5.20;;
68866;SDS011;56451;44.804;20.476;2023-11-19T09:31:30;8.87;;;5.50;;
68866;SDS011;56451;44.804;20.476;2023-11-19T09:33:56;10.50;;;5.45;;
68866;SDS011;56451;44.804;20.476;2023-11-19T09:36:22;8.68;;;4.78;;
68866;SDS011;56451;44.804;20.476;2023-11-19T09:38:48;10.98;;;5.65;;
68866;SDS011;56451;44.804;20.476;2023-11-19T09:41:14;10.20;;;5.80;;
68866;SDS011;56451;44.804;20.476;2023-11-19T09:43:41;7.38;;;5.00;;
68866;SDS011;56451;44.804;20.476;2023-11-19T09:46:11;8.57;;;4.88;;
68866;SDS011;56451;44.804;20.476;2023-11-19T09:48:39;6.30;;;4.47;;
68866;SDS011;56451;44.804;20.476;2023-11-19T09:51:08;7.15;;;4.85;;
68866;SDS011;56451;44.804;20.476;2023-11-19T09:53:36;7.40;;;4.30;;
68866;SDS011;56451;44.804;20.476;2023-11-19T09:56:06;7.80;;;4.88;;
68866;SDS011;56451;44.804;20.476;2023-11-19T09:58:35;7.18;;;4.50;;
68866;SDS011;56451;44.804;20.476;2023-11-19T10:01:01;6.40;;;4.17;;
68866;SDS011;56451;44.804;20.476;2023-11-19T10:03:37;6.68;;;3.83;;
68866;SDS011;56451;44.804;20.476;2023-11-19T10:06:08;7.15;;;3.95;;
68866;SDS011;56451;44.804;20.476;2023-11-19T10:08:38;6.60;;;4.03;;
68866;SDS011;56451;44.804;20.476;2023-11-19T10:11:07;6.75;;;4.20;;
68866;SDS011;56451;44.804;20.476;2023-11-19T10:13:37;6.73;;;3.90;;
68866;SDS011;56451;44.804;20.476;2023-11-19T10:16:04;7.32;;;4.30;;
68866;SDS011;56451;44.804;20.476;2023-11-19T10:18:33;7.95;;;4.43;;
68866;SDS011;56451;44.804;20.476;2023-11-19T10:21:06;6.32;;;4.10;;
68866;SDS011;56451;44.804;20.476;2023-11-19T10:23:54;6.75;;;4.22;;
68866;SDS011;56451;44.804;20.476;2023-11-19T10:26:26;7.57;;;4.30;;
68866;SDS011;56451;44.804;20.476;2023-11-19T10:28:53;7.47;;;4.22;;
68866;SDS011;56451;44.804;20.476;2023-11-19T10:31:21;5.68;;;3.88;;
68866;SDS011;56451;44.804;20.476;2023-11-19T10:33:51;7.15;;;4.03;;
68866;SDS011;56451;44.804;20.476;2023-11-19T10:36:17;7.25;;;4.10;;
68866;SDS011;56451;44.804;20.476;2023-11-19T10:38:53;7.97;;;4.67;;
68866;SDS011;56451;44.804;20.476;2023-11-19T10:41:27;10.52;;;4.32;;
68866;SDS011;56451;44.804;20.476;2023-11-19T10:43:57;5.50;;;3.72;;
68866;SDS011;56451;44.804;20.476;2023-11-19T10:46:23;6.63;;;4.28;;
68866;SDS011;56451;44.804;20.476;2023-11-19T10:49:02;8.50;;;4.53;;
68866;SDS011;56451;44.804;20.476;2023-11-19T10:51:28;7.40;;;4.30;;
68866;SDS011;56451;44.804;20.476;2023-11-19T10:53:55;7.00;;;4.07;;
68866;SDS011;56451;44.804;20.476;2023-11-19T10:56:31;6.70;;;4.45;;
68866;SDS011;56451;44.804;20.476;2023-11-19T10:58:59;5.65;;;3.67;;
68866;SDS011;56451;44.804;20.476;2023-11-19T11:01:27;6.57;;;4.20;;
68866;SDS011;56451;44.804;20.476;2023-11-19T11:04:00;6.00;;;3.78;;
68866;SDS011;56451;44.804;20.476;2023-11-19T11:06:27;6.25;;;4.25;;
68866;SDS011;56451;44.804;20.476;2023-11-19T11:08:54;5.15;;;3.55;;
68866;SDS011;56451;44.804;20.476;2023-11-19T11:11:22;10.07;;;4.75;;
68866;SDS011;56451;44.804;20.476;2023-11-19T11:13:49;7.70;;;4.60;;
68866;SDS011;56451;44.804;20.476;2023-11-19T11:16:19;8.35;;;5.20;;
68866;SDS011;56451;44.804;20.476;2023-11-19T11:18:46;7.82;;;4.93;;
68866;SDS011;56451;44.804;20.476;2023-11-19T11:21:20;7.50;;;4.50;;
68866;SDS011;56451;44.804;20.476;2023-11-19T11:26:53;6.70;;;3.72;;
68866;SDS011;56451;44.804;20.476;2023-11-19T11:29:24;7.80;;;4.30;;
68866;SDS011;56451;44.804;20.476;2023-11-19T11:32:33;7.97;;;4.30;;
68866;SDS011;56451;44.804;20.476;2023-11-19T11:38:10;8.00;;;4.68;;
68866;SDS011;56451;44.804;20.476;2023-11-19T11:40:39;7.43;;;4.75;;
68866;SDS011;56451;44.804;20.476;2023-11-19T11:43:30;8.13;;;4.57;;
68866;SDS011;56451;44.804;20.476;2023-11-19T11:49:03;7.40;;;4.05;;
68866;SDS011;56451;44.804;20.476;2023-11-19T11:54:11;10.25;;;4.60;;
68866;SDS011;56451;44.804;20.476;2023-11-19T11:57:10;6.30;;;3.45;;
68866;SDS011;56451;44.804;20.476;2023-11-19T12:02:07;6.88;;;3.30;;
68866;SDS011;56451;44.804;20.476;2023-11-19T12:04:35;5.53;;;3.08;;
68866;SDS011;56451;44.804;20.476;2023-11-19T12:07:05;5.15;;;3.30;;
68866;SDS011;56451;44.804;20.476;2023-11-19T12:09:39;11.68;;;3.90;;
68866;SDS011;56451;44.804;20.476;2023-11-19T12:12:07;6.25;;;3.53;;
68866;SDS011;56451;44.804;20.476;2023-11-19T12:15:19;8.68;;;3.40;;
68866;SDS011;56451;44.804;20.476;2023-11-19T12:17:47;7.43;;;3.95;;
68866;SDS011;56451;44.804;20.476;2023-11-19T12:20:17;6.72;;;3.47;;
68866;SDS011;56451;44.804;20.476;2023-11-19T12:22:45;8.02;;;3.33;;
68866;SDS011;56451;44.804;20.476;2023-11-19T12:25:12;6.05;;;3.45;;
68866;SDS011;56451;44.804;20.476;2023-11-19T12:27:39;6.20;;;3.03;;
68866;SDS011;56451;44.804;20.476;2023-11-19T12:30:06;7.00;;;3.60;;
68866;SDS011;56451;44.804;20.476;2023-11-19T12:32:37;6.30;;;3.80;;
68866;SDS011;56451;44.804;20.476;2023-11-19T12:35:07;8.75;;;3.97;;
68866;SDS011;56451;44.804;20.476;2023-11-19T12:37:40;8.77;;;3.75;;
68866;SDS011;56451;44.804;20.476;2023-11-19T12:40:22;6.82;;;3.95;;
68866;SDS011;56451;44.804;20.476;2023-11-19T12:42:53;8.52;;;3.75;;
68866;SDS011;56451;44.804;20.476;2023-11-19T12:45:19;7.03;;;3.85;;
68866;SDS011;56451;44.804;20.476;2023-11-19T12:47:47;6.97;;;3.45;;
68866;SDS011;56451;44.804;20.476;2023-11-19T12:50:15;6.68;;;3.38;;
68866;SDS011;56451;44.804;20.476;2023-11-19T12:53:04;5.97;;;3.30;;
68866;SDS011;56451;44.804;20.476;2023-11-19T12:55:30;5.63;;;3.10;;
68866;SDS011;56451;44.804;20.476;2023-11-19T12:57:58;7.90;;;3.55;;
68866;SDS011;56451;44.804;20.476;2023-11-19T13:00:25;4.20;;;3.40;;
68866;SDS011;56451;44.804;20.476;2023-11-19T13:02:53;6.88;;;3.75;;
68866;SDS011;56451;44.804;20.476;2023-11-19T13:05:41;6.03;;;3.45;;
68866;SDS011;56451;44.804;20.476;2023-11-19T13:08:06;7.55;;;3.38;;
68866;SDS011;56451;44.804;20.476;2023-11-19T13:13:32;7.28;;;3.10;;
68866;SDS011;56451;44.804;20.476;2023-11-19T13:16:04;8.07;;;3.60;;
68866;SDS011;56451;44.804;20.476;2023-11-19T13:18:34;5.20;;;3.55;;
68866;SDS011;56451;44.804;20.476;2023-11-19T13:21:00;8.45;;;3.38;;
68866;SDS011;56451;44.804;20.476;2023-11-19T13:23:26;5.27;;;3.23;;
68866;SDS011;56451;44.804;20.476;2023-11-19T13:25:52;6.13;;;3.13;;
68866;SDS011;56451;44.804;20.476;2023-11-19T13:28:18;5.72;;;3.17;;
68866;SDS011;56451;44.804;20.476;2023-11-19T13:30:44;5.55;;;2.90;;
68866;SDS011;56451;44.804;20.476;2023-11-19T13:33:10;7.47;;;3.30;;
68866;SDS011;56451;44.804;20.476;2023-11-19T13:35:37;6.85;;;3.65;;
68866;SDS011;56451;44.804;20.476;2023-11-19T13:38:06;10.98;;;3.72;;
68866;SDS011;56451;44.804;20.476;2023-11-19T13:40:34;7.28;;;3.30;;
68866;SDS011;56451;44.804;20.476;2023-11-19T13:43:00;7.85;;;3.67;;
68866;SDS011;56451;44.804;20.476;2023-11-19T13:45:26;6.85;;;3.35;;
68866;SDS011;56451;44.804;20.476;2023-11-19T13:47:53;4.70;;;2.90;;
68866;SDS011;56451;44.804;20.476;2023-11-19T13:50:19;5.85;;;3.08;;
68866;SDS011;56451;44.804;20.476;2023-11-19T13:52:45;9.35;;;4.28;;
68866;SDS011;56451;44.804;20.476;2023-11-19T13:55:13;5.50;;;3.70;;
68866;SDS011;56451;44.804;20.476;2023-11-19T13:57:39;9.55;;;4.65;;
68866;SDS011;56451;44.804;20.476;2023-11-19T14:00:07;10.23;;;4.95;;
68866;SDS011;56451;44.804;20.476;2023-11-19T14:02:41;12.35;;;5.88;;
68866;SDS011;56451;44.804;20.476;2023-11-19T14:05:09;14.32;;;5.75;;
68866;SDS011;56451;44.804;20.476;2023-11-19T14:07:36;9.40;;;5.47;;
68866;SDS011;56451;44.804;20.476;2023-11-19T14:10:06;8.93;;;5.53;;
68866;SDS011;56451;44.804;20.476;2023-11-19T14:12:35;12.18;;;6.18;;
68866;SDS011;56451;44.804;20.476;2023-11-19T14:15:02;12.48;;;6.10;;
68866;SDS011;56451;44.804;20.476;2023-11-19T14:17:31;12.50;;;6.32;;
68866;SDS011;56451;44.804;20.476;2023-11-19T14:19:57;9.85;;;6.20;;
68866;SDS011;56451;44.804;20.476;2023-11-19T14:22:23;11.30;;;6.32;;
68866;SDS011;56451;44.804;20.476;2023-11-19T14:24:50;13.27;;;6.50;;
68866;SDS011;56451;44.804;20.476;2023-11-19T14:27:16;13.45;;;6.57;;
68866;SDS011;56451;44.804;20.476;2023-11-19T14:29:43;11.63;;;6.53;;
68866;SDS011;56451;44.804;20.476;2023-11-19T14:32:12;16.70;;;7.25;;
68866;SDS011;56451;44.804;20.476;2023-11-19T14:34:38;14.15;;;7.68;;
68866;SDS011;56451;44.804;20.476;2023-11-19T14:37:04;15.80;;;7.68;;
68866;SDS011;56451;44.804;20.476;2023-11-19T14:39:30;16.08;;;8.02;;
68866;SDS011;56451;44.804;20.476;2023-11-19T14:41:59;13.65;;;8.75;;
68866;SDS011;56451;44.804;20.476;2023-11-19T14:44:29;16.85;;;7.95;;
68866;SDS011;56451;44.804;20.476;2023-11-19T14:46:56;18.83;;;8.73;;
68866;SDS011;56451;44.804;20.476;2023-11-19T14:49:22;19.80;;;10.60;;
68866;SDS011;56451;44.804;20.476;2023-11-19T14:51:50;23.25;;;11.98;;
68866;SDS011;56451;44.804;20.476;2023-11-19T14:54:17;19.15;;;11.57;;
68866;SDS011;56451;44.804;20.476;2023-11-19T14:56:45;32.85;;;17.20;;